createdAt,value
2023-02-12T00:00:56.388Z,16.58
2023-02-12T00:02:58.063Z,14.32
2023-02-12T00:04:59.696Z,14.15
2023-02-12T00:07:01.653Z,12.43
2023-02-12T00:09:03.493Z,12.23
2023-02-12T00:11:13.789Z,12.23
2023-02-12T00:13:16.092Z,13.80
2023-02-12T00:15:17.685Z,13.52
2023-02-12T00:17:19.395Z,12.13
2023-02-12T00:19:21.046Z,11.77
2023-02-12T00:21:23.503Z,12.38
2023-02-12T00:23:25.275Z,11.80
2023-02-12T00:25:26.911Z,13.82
2023-02-12T00:27:28.544Z,14.98
2023-02-12T00:29:30.168Z,14.23
2023-02-12T00:31:32.520Z,14.27
2023-02-12T00:33:34.176Z,13.25
2023-02-12T00:35:35.973Z,16.70
2023-02-12T00:37:40.641Z,15.23
2023-02-12T00:39:42.780Z,14.68
2023-02-12T00:41:44.422Z,13.90
2023-02-12T00:43:46.760Z,13.50
2023-02-12T00:45:48.846Z,12.90
2023-02-12T00:47:50.482Z,12.38
2023-02-12T00:49:52.190Z,12.63
2023-02-12T00:51:53.908Z,12.82
2023-02-12T00:53:55.550Z,13.48
2023-02-12T00:55:57.622Z,13.68
2023-02-12T00:57:59.976Z,14.38
2023-02-12T01:00:01.697Z,12.73
2023-02-12T01:02:04.452Z,13.50
2023-02-12T01:04:06.115Z,12.40
2023-02-12T01:06:08.217Z,13.23
2023-02-12T01:08:12.998Z,13.82
2023-02-12T01:10:14.652Z,13.82
2023-02-12T01:12:17.576Z,13.63
2023-02-12T01:14:19.296Z,11.90
2023-02-12T01:16:23.874Z,12.75
2023-02-12T01:18:25.616Z,11.52
2023-02-12T01:20:27.305Z,12.52
2023-02-12T01:22:28.988Z,11.32
2023-02-12T01:24:30.965Z,13.07
2023-02-12T01:26:33.273Z,11.40
2023-02-12T01:28:34.896Z,12.18
2023-02-12T01:30:36.590Z,12.10
2023-02-12T01:32:38.433Z,10.52
2023-02-12T01:34:40.055Z,12.00
2023-02-12T01:36:41.699Z,11.65
2023-02-12T01:38:43.409Z,11.93
2023-02-12T01:40:45.040Z,11.02
2023-02-12T01:42:46.743Z,12.25
2023-02-12T01:45:13.213Z,12.68
2023-02-12T01:47:17.870Z,12.05
2023-02-12T01:49:26.196Z,12.13
2023-02-12T01:51:28.943Z,12.45
2023-02-12T01:53:37.505Z,12.02
2023-02-12T01:55:39.875Z,11.95
2023-02-12T01:57:44.071Z,13.05
2023-02-12T01:59:50.434Z,12.05
2023-02-12T02:01:52.330Z,11.68
2023-02-12T02:04:01.177Z,11.23
2023-02-12T02:06:14.527Z,12.23
2023-02-12T02:08:16.414Z,11.82
2023-02-12T02:10:18.055Z,12.65
2023-02-12T02:12:38.591Z,10.43
2023-02-12T02:14:41.368Z,10.88
2023-02-12T02:16:47.764Z,11.40
2023-02-12T02:18:58.554Z,11.10
2023-02-12T02:21:34.268Z,9.57
2023-02-12T02:24:20.650Z,10.25
2023-02-12T02:26:49.965Z,9.73
2023-02-12T02:29:04.007Z,12.32
2023-02-12T02:31:16.745Z,11.38
2023-02-12T02:33:27.631Z,11.52
2023-02-12T02:35:38.049Z,12.00
2023-02-12T02:37:44.997Z,9.93
2023-02-12T02:39:53.170Z,11.10
2023-02-12T02:42:24.836Z,10.93
2023-02-12T02:44:43.016Z,12.32
2023-02-12T02:46:49.470Z,9.60
2023-02-12T02:48:54.468Z,11.45
2023-02-12T02:50:59.453Z,11.30
2023-02-12T02:53:30.743Z,11.05
2023-02-12T02:55:45.663Z,11.77
2023-02-12T02:57:57.442Z,10.35
2023-02-12T03:00:05.264Z,10.35
2023-02-12T03:02:11.755Z,11.45
2023-02-12T03:04:38.125Z,10.57
2023-02-12T03:06:59.971Z,11.10
2023-02-12T03:09:12.674Z,10.32
2023-02-12T03:11:26.460Z,11.48
2023-02-12T03:13:32.919Z,10.65
2023-02-12T03:15:39.640Z,11.25
2023-02-12T03:17:45.012Z,10.30
2023-02-12T03:19:59.546Z,10.75
2023-02-12T03:22:05.146Z,10.60
2023-02-12T03:24:22.283Z,11.25
2023-02-12T03:26:28.832Z,11.02
2023-02-12T03:28:33.425Z,11.23
2023-02-12T03:30:49.886Z,11.48
2023-02-12T03:33:14.991Z,11.80
2023-02-12T03:35:22.201Z,10.02
2023-02-12T03:37:36.421Z,11.23
2023-02-12T03:40:02.236Z,9.93
2023-02-12T03:42:29.816Z,10.77
2023-02-12T03:44:56.801Z,10.90
2023-02-12T03:47:03.399Z,11.70
2023-02-12T03:49:14.981Z,12.02
2023-02-12T03:51:22.098Z,11.05
2023-02-12T03:53:25.617Z,12.30
2023-02-12T03:55:27.319Z,10.73
2023-02-12T03:57:35.212Z,9.15
2023-02-12T03:59:38.596Z,11.38
2023-02-12T04:01:40.548Z,11.80
2023-02-12T04:03:42.288Z,12.00
2023-02-12T04:05:43.986Z,11.20
2023-02-12T04:07:45.696Z,12.25
2023-02-12T04:09:47.589Z,10.65
2023-02-12T04:12:07.622Z,11.40
2023-02-12T04:14:48.794Z,11.43
2023-02-12T04:17:22.597Z,10.98
2023-02-12T04:19:58.762Z,12.10
2023-02-12T04:22:15.665Z,11.73
2023-02-12T04:24:32.168Z,11.93
2023-02-12T04:26:37.692Z,14.52
2023-02-12T04:28:57.659Z,14.88
2023-02-12T04:31:31.463Z,12.82
2023-02-12T04:33:47.427Z,12.57
2023-02-12T04:36:01.665Z,11.48
2023-02-12T04:38:22.309Z,12.23
2023-02-12T04:40:24.254Z,11.35
2023-02-12T04:42:26.232Z,12.63
2023-02-12T04:44:31.016Z,11.27
2023-02-12T04:46:32.648Z,13.50
2023-02-12T04:48:35.872Z,11.80
2023-02-12T04:50:42.303Z,12.80
2023-02-12T04:52:43.961Z,12.50
2023-02-12T04:54:45.754Z,13.43
2023-02-12T04:56:48.233Z,13.02
2023-02-12T04:58:50.541Z,11.75
2023-02-12T05:00:52.161Z,15.15
2023-02-12T05:02:53.884Z,12.10
2023-02-12T05:04:55.626Z,12.80
2023-02-12T05:06:57.350Z,13.68
2023-02-12T05:08:58.959Z,12.30
2023-02-12T05:11:08.459Z,13.27
2023-02-12T05:13:10.781Z,12.38
2023-02-12T05:15:12.574Z,12.20
2023-02-12T05:17:14.248Z,12.50
2023-02-12T05:19:15.961Z,12.55
2023-02-12T05:21:17.778Z,13.18
2023-02-12T05:23:19.391Z,11.85
2023-02-12T05:25:21.427Z,13.98
2023-02-12T05:27:23.109Z,11.38
2023-02-12T05:29:24.781Z,13.15
2023-02-12T05:31:26.620Z,12.88
2023-02-12T05:33:28.441Z,12.77
2023-02-12T05:35:30.037Z,11.88
2023-02-12T05:37:35.031Z,12.07
2023-02-12T05:39:36.694Z,12.27
2023-02-12T05:41:38.501Z,11.07
2023-02-12T05:43:40.758Z,11.18
2023-02-12T05:45:45.026Z,11.38
2023-02-12T05:47:46.704Z,11.95
2023-02-12T05:49:48.365Z,12.43
2023-02-12T05:51:50.089Z,12.80
2023-02-12T05:53:55.828Z,11.93
2023-02-12T05:56:23.322Z,11.52
2023-02-12T05:58:24.975Z,11.35
2023-02-12T06:00:29.429Z,12.13
2023-02-12T06:02:34.889Z,11.18
2023-02-12T06:04:36.558Z,11.57
2023-02-12T06:06:38.172Z,11.27
2023-02-12T06:08:40.039Z,11.23
2023-02-12T06:10:41.736Z,10.48
2023-02-12T06:12:43.376Z,10.55
2023-02-12T06:14:45.038Z,11.45
2023-02-12T06:16:50.551Z,11.43
2023-02-12T06:18:53.626Z,13.65
2023-02-12T06:20:55.362Z,11.57
2023-02-12T06:22:57.095Z,11.40
2023-02-12T06:24:58.678Z,12.80
2023-02-12T06:27:00.372Z,12.63
2023-02-12T06:29:02.230Z,13.40
2023-02-12T06:31:04.098Z,11.88
2023-02-12T06:33:05.854Z,12.85
2023-02-12T06:35:07.687Z,12.27
2023-02-12T06:37:09.323Z,11.73
2023-02-12T06:39:11.909Z,11.07
2023-02-12T06:41:13.809Z,12.15
2023-02-12T06:43:15.839Z,10.88
2023-02-12T06:45:17.619Z,12.23
2023-02-12T06:47:19.262Z,10.85
2023-02-12T06:49:20.947Z,11.27
2023-02-12T06:51:23.684Z,10.95
2023-02-12T06:53:25.428Z,11.85
2023-02-12T06:55:27.719Z,11.68
2023-02-12T06:57:30.193Z,13.07
2023-02-12T06:59:31.998Z,11.73
2023-02-12T07:01:33.649Z,11.18
2023-02-12T07:03:35.514Z,10.30
2023-02-12T07:05:40.008Z,11.18
2023-02-12T07:07:41.705Z,12.25
2023-02-12T07:09:43.407Z,11.40
2023-02-12T07:11:45.071Z,12.18
2023-02-12T07:13:46.778Z,11.43
2023-02-12T07:15:48.448Z,11.57
2023-02-12T07:17:50.110Z,13.07
2023-02-12T07:19:51.713Z,11.30
2023-02-12T07:21:53.350Z,11.20
2023-02-12T07:23:55.469Z,11.93
2023-02-12T07:26:01.422Z,12.23
2023-02-12T07:28:03.160Z,13.43
2023-02-12T07:30:06.805Z,11.27
2023-02-12T07:32:08.495Z,12.07
2023-02-12T07:34:11.179Z,11.35
2023-02-12T07:36:15.419Z,12.57
2023-02-12T07:38:17.010Z,11.43
2023-02-12T07:40:18.687Z,11.98
2023-02-12T07:42:20.366Z,13.18
2023-02-12T07:44:22.098Z,13.35
2023-02-12T07:46:32.418Z,13.55
2023-02-12T07:48:34.093Z,12.90
2023-02-12T07:50:35.766Z,13.43
2023-02-12T07:52:37.560Z,13.30
2023-02-12T07:54:39.192Z,11.45
2023-02-12T07:56:42.390Z,12.82
2023-02-12T07:58:45.684Z,13.75
2023-02-12T08:00:47.407Z,12.70
2023-02-12T08:02:53.333Z,12.35
2023-02-12T08:04:58.633Z,15.35
2023-02-12T08:07:00.445Z,13.50
2023-02-12T08:09:04.801Z,13.05
2023-02-12T08:11:08.251Z,12.80
2023-02-12T08:13:09.901Z,12.88
2023-02-12T08:15:11.499Z,13.25
2023-02-12T08:17:13.278Z,14.07
2023-02-12T08:19:20.219Z,14.82
2023-02-12T08:21:25.653Z,13.30
2023-02-12T08:23:27.287Z,12.98
2023-02-12T08:25:28.947Z,14.55
2023-02-12T08:27:30.680Z,16.17
2023-02-12T08:29:32.442Z,16.48
2023-02-12T08:31:40.399Z,16.52
2023-02-12T08:33:42.170Z,15.27
2023-02-12T08:35:43.805Z,15.18
2023-02-12T08:37:45.462Z,15.95
2023-02-12T08:39:48.990Z,16.48
2023-02-12T08:41:50.893Z,14.60
2023-02-12T08:43:54.217Z,15.43
2023-02-12T08:45:58.250Z,14.93
2023-02-12T08:48:00.131Z,16.15
2023-02-12T08:50:01.873Z,15.88
2023-02-12T08:52:03.692Z,15.65
2023-02-12T08:54:07.757Z,14.85
2023-02-12T08:56:11.565Z,15.30
2023-02-12T08:58:13.217Z,17.90
2023-02-12T09:00:15.154Z,17.23
2023-02-12T09:02:16.873Z,16.10
2023-02-12T09:04:21.875Z,16.52
2023-02-12T09:06:25.122Z,15.57
2023-02-12T09:08:26.813Z,16.77
2023-02-12T09:10:28.428Z,17.05
2023-02-12T09:12:30.056Z,17.77
2023-02-12T09:14:31.690Z,17.88
2023-02-12T09:16:35.141Z,18.65
2023-02-12T09:18:37.283Z,16.30
2023-02-12T09:20:41.527Z,17.48
2023-02-12T09:22:43.153Z,16.52
2023-02-12T09:24:45.063Z,17.65
2023-02-12T09:26:46.740Z,18.58
2023-02-12T09:28:50.067Z,16.80
2023-02-12T09:30:54.483Z,18.40
2023-02-12T09:32:56.941Z,17.98
2023-02-12T09:34:58.584Z,16.60
2023-02-12T09:37:00.230Z,20.17
2023-02-12T09:39:02.063Z,19.13
2023-02-12T09:41:35.765Z,18.58
2023-02-12T09:43:44.721Z,18.52
2023-02-12T09:45:56.561Z,17.75
2023-02-12T09:48:13.809Z,18.88
2023-02-12T09:50:38.551Z,20.40
2023-02-12T09:52:40.466Z,19.60
2023-02-12T09:54:42.396Z,19.25
2023-02-12T09:56:50.380Z,19.27
2023-02-12T09:58:53.704Z,19.13
2023-02-12T10:00:55.362Z,20.00
2023-02-12T10:03:03.334Z,19.42
2023-02-12T10:05:16.073Z,18.05
2023-02-12T10:07:20.323Z,18.83
2023-02-12T10:09:40.858Z,20.27
2023-02-12T10:11:53.170Z,18.13
2023-02-12T10:14:17.882Z,19.05
2023-02-12T10:16:30.156Z,18.33
2023-02-12T10:18:58.559Z,17.27
2023-02-12T10:21:31.483Z,21.13
2023-02-12T10:24:07.496Z,19.38
2023-02-12T10:26:21.928Z,17.58
2023-02-12T10:28:31.492Z,21.05
2023-02-12T10:30:44.879Z,19.67
2023-02-12T10:32:48.398Z,21.27
2023-02-12T10:34:51.523Z,18.58
2023-02-12T10:36:58.325Z,19.27
2023-02-12T10:39:14.456Z,17.80
2023-02-12T10:41:16.407Z,17.77
2023-02-12T10:43:18.056Z,16.85
2023-02-12T10:45:22.031Z,16.08
2023-02-12T10:47:26.410Z,18.02
2023-02-12T10:49:31.459Z,16.70
2023-02-12T10:51:54.904Z,16.75
2023-02-12T10:53:56.596Z,16.80
2023-02-12T10:56:12.368Z,15.35
2023-02-12T10:58:24.322Z,15.10
2023-02-12T11:00:31.483Z,16.05
2023-02-12T11:02:34.406Z,15.13
2023-02-12T11:04:36.117Z,14.07
2023-02-12T11:07:04.922Z,15.82
2023-02-12T11:09:06.573Z,15.20
2023-02-12T11:11:13.619Z,12.95
2023-02-12T11:13:26.375Z,13.32
2023-02-12T11:15:35.504Z,13.30
2023-02-12T11:17:39.158Z,11.93
2023-02-12T11:19:41.784Z,12.60
2023-02-12T11:21:43.540Z,12.15
2023-02-12T11:23:46.218Z,11.57
2023-02-12T11:26:02.609Z,12.75
2023-02-12T11:28:07.337Z,10.93
2023-02-12T11:30:20.821Z,11.30
2023-02-12T11:32:22.698Z,11.43
2023-02-12T11:34:24.723Z,11.30
2023-02-12T11:36:27.707Z,9.95
2023-02-12T11:38:36.812Z,9.30
2023-02-12T11:40:38.498Z,8.80
2023-02-12T11:42:43.492Z,10.07
2023-02-12T11:44:53.675Z,7.35
2023-02-12T11:47:09.333Z,7.43
2023-02-12T11:49:20.548Z,7.78
2023-02-12T11:51:27.012Z,8.70
2023-02-12T11:53:32.269Z,8.45
2023-02-12T11:55:36.110Z,8.23
2023-02-12T11:57:43.537Z,8.38
2023-02-12T11:59:46.140Z,8.15
2023-02-12T12:01:48.669Z,8.00
2023-02-12T12:03:56.227Z,10.60
2023-02-12T12:06:05.175Z,8.52
2023-02-12T12:08:28.275Z,7.00
2023-02-12T12:10:39.985Z,7.30
2023-02-12T12:12:53.313Z,8.77
2023-02-12T12:15:18.242Z,8.50
2023-02-12T12:17:38.455Z,6.15
2023-02-12T12:19:58.359Z,5.03
2023-02-12T12:22:05.936Z,5.90
2023-02-12T12:24:32.937Z,4.97
2023-02-12T12:26:34.770Z,4.72
2023-02-12T12:28:41.533Z,4.25
2023-02-12T12:30:55.248Z,4.70
2023-02-12T12:33:00.053Z,4.10
2023-02-12T12:35:01.808Z,5.53
2023-02-12T12:37:23.549Z,4.30
2023-02-12T12:40:03.639Z,3.83
2023-02-12T12:42:33.144Z,3.92
2023-02-12T12:45:04.974Z,4.05
2023-02-12T12:47:24.777Z,4.28
2023-02-12T12:49:42.027Z,3.03
2023-02-12T12:51:58.912Z,3.47
2023-02-12T12:54:00.539Z,4.03
2023-02-12T12:56:04.845Z,3.65
2023-02-12T12:58:43.194Z,4.63
2023-02-12T13:01:10.945Z,3.47
2023-02-12T13:03:37.024Z,4.00
2023-02-12T13:05:55.143Z,3.00
2023-02-12T13:08:16.666Z,3.00
2023-02-12T13:10:51.418Z,3.65
2023-02-12T13:13:35.738Z,3.28
2023-02-12T13:15:54.637Z,3.08
2023-02-12T13:18:24.200Z,2.55
2023-02-12T13:20:34.997Z,4.25
2023-02-12T13:22:48.709Z,4.25
2023-02-12T13:24:57.157Z,4.38
2023-02-12T13:27:07.054Z,3.88
2023-02-12T13:29:17.524Z,3.83
2023-02-12T13:31:32.981Z,4.55
2023-02-12T13:33:42.827Z,3.70
2023-02-12T13:35:46.772Z,4.50
2023-02-12T13:37:52.618Z,4.20
2023-02-12T13:39:59.082Z,3.05
2023-02-12T13:42:03.888Z,3.47
2023-02-12T13:44:21.229Z,4.38
2023-02-12T13:46:29.033Z,4.65
2023-02-12T13:48:47.171Z,5.03
2023-02-12T13:51:01.531Z,5.63
2023-02-12T13:53:37.193Z,5.18
2023-02-12T13:55:46.462Z,5.05
2023-02-12T13:58:26.785Z,4.25
2023-02-12T14:00:50.091Z,4.47
2023-02-12T14:02:52.449Z,5.28
2023-02-12T14:04:54.081Z,4.43
2023-02-12T14:07:03.253Z,4.10
2023-02-12T14:09:10.609Z,4.25
2023-02-12T14:11:17.823Z,3.65
2023-02-12T14:13:22.569Z,4.28
2023-02-12T14:15:34.178Z,4.35
2023-02-12T14:17:36.670Z,3.38
2023-02-12T14:19:59.534Z,3.97
2023-02-12T14:22:02.173Z,3.22
2023-02-12T14:24:35.882Z,3.50
2023-02-12T14:26:38.430Z,3.92
2023-02-12T14:29:01.588Z,3.80
2023-02-12T14:31:21.348Z,4.28
2023-02-12T14:33:26.377Z,4.75
2023-02-12T14:35:31.249Z,3.67
2023-02-12T14:37:37.635Z,3.88
2023-02-12T14:39:39.548Z,4.57
2023-02-12T14:41:41.965Z,4.28
2023-02-12T14:44:01.876Z,3.75
2023-02-12T14:46:25.045Z,4.63
2023-02-12T14:48:41.467Z,3.95
2023-02-12T14:50:50.445Z,5.00
2023-02-12T14:52:56.030Z,4.72
2023-02-12T14:55:06.231Z,4.80
2023-02-12T14:57:29.306Z,5.45
2023-02-12T14:59:34.677Z,5.45
2023-02-12T15:01:36.691Z,4.55
2023-02-12T15:03:38.400Z,5.55
2023-02-12T15:05:48.300Z,4.93
2023-02-12T15:07:55.706Z,6.10
2023-02-12T15:10:07.393Z,4.95
2023-02-12T15:12:17.737Z,4.85
2023-02-12T15:14:31.390Z,4.80
2023-02-12T15:16:55.998Z,6.15
2023-02-12T15:19:02.532Z,7.53
2023-02-12T15:21:12.078Z,7.50
2023-02-12T15:23:52.961Z,8.38
2023-02-12T15:25:54.959Z,8.55
2023-02-12T15:28:03.955Z,8.98
2023-02-12T15:30:08.777Z,8.50
2023-02-12T15:32:24.005Z,10.27
2023-02-12T15:34:30.302Z,9.80
2023-02-12T15:36:34.453Z,8.98
2023-02-12T15:38:38.835Z,9.98
2023-02-12T15:40:56.762Z,10.38
2023-02-12T15:43:00.752Z,9.52
2023-02-12T15:45:08.943Z,10.38
2023-02-12T15:47:16.313Z,10.30
2023-02-12T15:49:24.312Z,10.30
2023-02-12T15:51:35.799Z,9.93
2023-02-12T15:53:38.893Z,9.35
2023-02-12T15:55:44.092Z,9.88
2023-02-12T15:57:57.216Z,11.18
2023-02-12T16:00:17.059Z,10.52
2023-02-12T16:02:31.053Z,10.48
2023-02-12T16:04:37.221Z,10.30
2023-02-12T16:06:39.076Z,12.30
2023-02-12T16:08:50.152Z,10.23
2023-02-12T16:10:53.625Z,10.95
2023-02-12T16:12:55.487Z,11.57
2023-02-12T16:15:00.040Z,11.77
2023-02-12T16:17:01.811Z,11.02
2023-02-12T16:19:21.779Z,11.73
2023-02-12T16:21:23.605Z,12.43
2023-02-12T16:23:25.430Z,12.30
2023-02-12T16:25:32.337Z,11.73
2023-02-12T16:27:34.976Z,11.73
2023-02-12T16:29:39.965Z,10.77
2023-02-12T16:31:53.301Z,10.38
2023-02-12T16:33:58.588Z,11.23
2023-02-12T16:36:05.148Z,12.18
2023-02-12T16:38:43.534Z,13.02
2023-02-12T16:41:20.432Z,13.15
2023-02-12T16:43:24.284Z,11.38
2023-02-12T16:45:26.588Z,12.45
2023-02-12T16:47:28.374Z,11.60
2023-02-12T16:49:30.145Z,13.15
2023-02-12T16:51:36.540Z,14.13
2023-02-12T16:53:43.823Z,11.82
2023-02-12T16:55:45.507Z,13.98
2023-02-12T16:57:47.110Z,14.10
2023-02-12T16:59:48.760Z,13.98
2023-02-12T17:02:02.577Z,13.43
2023-02-12T17:04:09.220Z,14.05
2023-02-12T17:06:11.653Z,16.25
2023-02-12T17:08:14.760Z,15.20
2023-02-12T17:10:17.150Z,14.77
2023-02-12T17:12:18.893Z,18.40
2023-02-12T17:14:21.063Z,16.08
2023-02-12T17:16:31.847Z,14.80
2023-02-12T17:18:36.020Z,17.45
2023-02-12T17:20:38.749Z,15.32
2023-02-12T17:22:42.780Z,16.75
2023-02-12T17:24:49.381Z,17.80
2023-02-12T17:26:51.486Z,16.88
2023-02-12T17:28:53.193Z,16.17
2023-02-12T17:30:55.037Z,16.20
2023-02-12T17:32:56.924Z,16.63
2023-02-12T17:34:58.591Z,15.25
2023-02-12T17:37:00.204Z,15.23
2023-02-12T17:39:05.344Z,15.10
2023-02-12T17:41:10.864Z,16.73
2023-02-12T17:43:12.594Z,16.25
2023-02-12T17:45:14.619Z,16.05
2023-02-12T17:47:16.238Z,15.82
2023-02-12T17:49:18.126Z,15.52
2023-02-12T17:51:20.284Z,15.23
2023-02-12T17:53:21.890Z,14.73
2023-02-12T17:55:23.644Z,15.30
2023-02-12T17:57:25.358Z,14.38
2023-02-12T17:59:27.135Z,14.82
2023-02-12T18:01:28.908Z,16.05
2023-02-12T18:03:30.611Z,13.38
2023-02-12T18:05:32.395Z,13.77
2023-02-12T18:07:35.576Z,13.15
2023-02-12T18:09:38.285Z,13.40
2023-02-12T18:11:42.269Z,13.40
2023-02-12T18:13:44.190Z,12.68
2023-02-12T18:15:45.890Z,10.57
2023-02-12T18:17:47.507Z,12.50
2023-02-12T18:19:49.413Z,11.30
2023-02-12T18:21:51.094Z,11.38
2023-02-12T18:23:54.024Z,11.52
2023-02-12T18:25:55.621Z,11.32
2023-02-12T18:27:57.350Z,9.30
2023-02-12T18:29:59.188Z,11.02
2023-02-12T18:32:00.852Z,11.52
2023-02-12T18:34:02.784Z,9.55
2023-02-12T18:36:06.865Z,10.98
2023-02-12T18:38:08.540Z,10.57
2023-02-12T18:40:11.368Z,10.93
2023-02-12T18:42:12.974Z,10.63
2023-02-12T18:44:15.100Z,12.30
2023-02-12T18:46:17.971Z,12.30
2023-02-12T18:48:19.625Z,12.05
2023-02-12T18:50:21.368Z,13.20
2023-02-12T18:52:23.021Z,12.95
2023-02-12T18:54:24.765Z,14.85
2023-02-12T18:56:26.364Z,13.85
2023-02-12T18:58:31.122Z,17.10
2023-02-12T19:00:32.941Z,14.75
2023-02-12T19:02:34.553Z,14.65
2023-02-12T19:04:36.360Z,13.05
2023-02-12T19:06:40.990Z,18.00
2023-02-12T19:08:42.874Z,15.30
2023-02-12T19:10:44.766Z,14.57
2023-02-12T19:12:46.423Z,13.18
2023-02-12T19:14:48.191Z,14.90
2023-02-12T19:16:50.490Z,13.95
2023-02-12T19:18:54.881Z,13.73
2023-02-12T19:20:56.792Z,13.20
2023-02-12T19:22:58.588Z,14.38
2023-02-12T19:25:00.282Z,13.90
2023-02-12T19:27:01.944Z,12.57
2023-02-12T19:29:04.881Z,14.15
2023-02-12T19:31:17.595Z,14.15
2023-02-12T19:33:19.489Z,13.23
2023-02-12T19:35:21.100Z,14.73
2023-02-12T19:37:22.907Z,13.82
2023-02-12T19:39:25.013Z,11.90
2023-02-12T19:41:28.495Z,13.20
2023-02-12T19:43:30.284Z,12.85
2023-02-12T19:45:33.020Z,16.17
2023-02-12T19:47:34.644Z,14.45
2023-02-12T19:49:38.067Z,14.77
2023-02-12T19:51:41.699Z,14.55
2023-02-12T19:53:43.850Z,14.57
2023-02-12T19:55:45.478Z,17.58
2023-02-12T19:57:48.035Z,16.83
2023-02-12T19:59:49.703Z,16.17
2023-02-12T20:01:51.509Z,15.82
2023-02-12T20:03:53.890Z,15.90
2023-02-12T20:06:09.511Z,15.82
2023-02-12T20:08:11.231Z,15.65
2023-02-12T20:10:13.200Z,14.70
2023-02-12T20:12:14.817Z,16.80
2023-02-12T20:14:17.024Z,14.77
2023-02-12T20:16:21.391Z,17.23
2023-02-12T20:18:23.379Z,18.05
2023-02-12T20:20:25.055Z,17.77
2023-02-12T20:22:26.662Z,16.73
2023-02-12T20:24:30.096Z,17.25
2023-02-12T20:26:33.605Z,18.23
2023-02-12T20:28:36.344Z,16.90
2023-02-12T20:30:42.376Z,14.98
2023-02-12T20:32:47.417Z,14.60
2023-02-12T20:34:52.054Z,15.48
2023-02-12T20:36:54.314Z,17.08
2023-02-12T20:38:56.335Z,14.70
2023-02-12T20:41:02.412Z,15.50
2023-02-12T20:43:04.148Z,16.30
2023-02-12T20:45:06.243Z,16.75
2023-02-12T20:47:07.939Z,15.82
2023-02-12T20:49:12.784Z,14.35
2023-02-12T20:51:22.843Z,15.35
2023-02-12T20:53:24.612Z,15.50
2023-02-12T20:55:26.210Z,16.75
2023-02-12T20:57:27.838Z,15.98
2023-02-12T20:59:29.507Z,16.58
2023-02-12T21:01:40.053Z,17.23
2023-02-12T21:03:42.103Z,14.38
2023-02-12T21:05:43.760Z,16.42
2023-02-12T21:07:45.676Z,16.73
2023-02-12T21:09:47.327Z,15.57
2023-02-12T21:11:49.342Z,16.30
2023-02-12T21:14:02.337Z,14.93
2023-02-12T21:16:09.087Z,15.45
2023-02-12T21:18:10.786Z,14.48
2023-02-12T21:20:12.452Z,15.15
2023-02-12T21:22:14.175Z,14.60
2023-02-12T21:24:18.773Z,14.32
2023-02-12T21:26:22.591Z,16.08
2023-02-12T21:28:24.326Z,14.95
2023-02-12T21:30:25.948Z,14.05
2023-02-12T21:32:27.826Z,16.20
2023-02-12T21:34:29.963Z,13.30
2023-02-12T21:36:36.997Z,15.85
2023-02-12T21:38:40.120Z,13.25
2023-02-12T21:40:41.757Z,15.13
2023-02-12T21:42:43.409Z,15.55
2023-02-12T21:44:48.162Z,14.43
2023-02-12T21:46:49.986Z,14.43
2023-02-12T21:48:52.047Z,17.00
2023-02-12T21:50:53.706Z,15.77
2023-02-12T21:52:55.353Z,16.20
2023-02-12T21:54:57.496Z,16.70
2023-02-12T21:56:59.903Z,14.88
2023-02-12T21:59:01.719Z,14.68
2023-02-12T22:01:08.639Z,15.52
2023-02-12T22:03:10.376Z,14.30
2023-02-12T22:05:12.045Z,15.88
2023-02-12T22:07:13.641Z,15.63
2023-02-12T22:09:16.969Z,18.05
2023-02-12T22:11:19.379Z,14.43
2023-02-12T22:13:21.041Z,14.00
2023-02-12T22:15:22.953Z,15.00
2023-02-12T22:17:24.615Z,15.65
2023-02-12T22:19:26.299Z,15.23
2023-02-12T22:21:29.980Z,16.67
2023-02-12T22:23:32.126Z,17.17
2023-02-12T22:25:33.989Z,16.10
2023-02-12T22:27:35.605Z,15.70
2023-02-12T22:29:37.376Z,16.92
2023-02-12T22:31:41.104Z,16.55
2023-02-12T22:33:42.932Z,16.73
2023-02-12T22:35:44.550Z,16.52
2023-02-12T22:37:46.305Z,14.82
2023-02-12T22:39:47.939Z,14.88
2023-02-12T22:41:49.723Z,14.68
2023-02-12T22:43:51.432Z,14.85
2023-02-12T22:45:53.151Z,15.88
2023-02-12T22:47:54.894Z,15.73
2023-02-12T22:49:56.540Z,14.75
2023-02-12T22:51:58.222Z,16.27
2023-02-12T22:54:00.600Z,15.55
2023-02-12T22:56:04.028Z,15.52
2023-02-12T22:58:05.674Z,16.52
2023-02-12T23:00:08.478Z,16.30
2023-02-12T23:02:10.346Z,15.55
2023-02-12T23:04:16.983Z,15.00
2023-02-12T23:06:23.645Z,14.77
2023-02-12T23:08:28.238Z,15.35
2023-02-12T23:10:29.840Z,16.35
2023-02-12T23:12:31.509Z,15.40
2023-02-12T23:14:36.113Z,14.13
2023-02-12T23:16:38.090Z,14.32
2023-02-12T23:18:39.773Z,15.63
2023-02-12T23:20:41.447Z,13.70
2023-02-12T23:22:43.245Z,15.43
2023-02-12T23:24:46.191Z,13.68
2023-02-12T23:26:47.793Z,15.13
2023-02-12T23:28:49.489Z,14.07
2023-02-12T23:30:52.283Z,14.38
2023-02-12T23:32:54.290Z,13.35
2023-02-12T23:34:56.177Z,14.38
2023-02-12T23:36:58.067Z,13.45
2023-02-12T23:39:00.148Z,14.20
2023-02-12T23:41:01.765Z,13.13
2023-02-12T23:43:04.709Z,12.00
2023-02-12T23:45:07.209Z,16.25
2023-02-12T23:47:08.838Z,15.55
2023-02-12T23:49:10.690Z,13.00
2023-02-12T23:51:12.328Z,14.50
2023-02-12T23:53:14.012Z,14.88
2023-02-12T23:55:15.951Z,13.63
2023-02-12T23:57:17.641Z,13.77
2023-02-12T23:59:19.440Z,14.77
